NOZ7H ENCN-ENGM
Flight info
| Callsign | NOZ7H |
|---|---|
| Flight time | 0h 30m |
| Altitude | 27000 |
| Route | VAVET DCT PIPEX M609 RIPAM |
| Aircraft | B738/M-SDE2E3FGHIRWXY/LB1 |
Departure
| Time | 2026-05-04 08:14 |
|---|---|
| Airport | Kristiansand Airport (ENCN) |
Arrival
| Time | 2026-05-04 08:44 |
|---|---|
| Airport | Oslo-Gardermoen International Airport (ENGM) |
| Time | Latitude | Longitude | Altitude | Speed | Heading |
|---|---|---|---|---|---|
| 2026-05-04 07:01 | 58.20246 | 8.07557 | 57 ft | 0 kts | 300° |
| 2026-05-04 08:08 | 58.20219 | 8.07640 | 50 ft | 0 kts | 302° |
| 2026-05-04 08:10 | 58.20218 | 8.07626 | 57 ft | 1 kts | 255° |
| 2026-05-04 08:11 | 58.20205 | 8.07613 | 53 ft | 4 kts | 206° |
| 2026-05-04 08:11 | 58.20085 | 8.07478 | 57 ft | 13 kts | 212° |
| 2026-05-04 08:11 | 58.20007 | 8.07386 | 54 ft | 13 kts | 210° |
| 2026-05-04 08:12 | 58.19921 | 8.07366 | 54 ft | 13 kts | 162° |
| 2026-05-04 08:12 | 58.19839 | 8.07419 | 54 ft | 12 kts | 161° |
| 2026-05-04 08:12 | 58.19758 | 8.07468 | 55 ft | 12 kts | 161° |
| 2026-05-04 08:12 | 58.19692 | 8.07544 | 59 ft | 11 kts | 102° |
| 2026-05-04 08:13 | 58.19711 | 8.07595 | 56 ft | 0 kts | 34° |
| 2026-05-04 08:13 | 58.19730 | 8.07621 | 56 ft | 26 kts | 35° |
| 2026-05-04 08:13 | 58.20143 | 8.08165 | 54 ft | 116 kts | 37° |
| 2026-05-04 08:13 | 58.21003 | 8.09327 | 214 ft | 173 kts | 33° |
| 2026-05-04 08:14 | 58.21978 | 8.10662 | 1351 ft | 174 kts | 30° |
| 2026-05-04 08:14 | 58.23023 | 8.12038 | 2064 ft | 198 kts | 28° |
| 2026-05-04 08:14 | 58.24238 | 8.13632 | 2457 ft | 227 kts | 30° |
| 2026-05-04 08:16 | 58.34568 | 8.27914 | 8159 ft | 286 kts | 33° |
| 2026-05-04 08:16 | 58.36170 | 8.30241 | 9249 ft | 292 kts | 33° |
| 2026-05-04 08:16 | 58.37812 | 8.32625 | 10227 ft | 301 kts | 32° |
| 2026-05-04 08:17 | 58.39555 | 8.35143 | 10666 ft | 330 kts | 32° |
| 2026-05-04 08:17 | 58.41437 | 8.37863 | 11346 ft | 345 kts | 33° |
| 2026-05-04 08:17 | 58.43373 | 8.40678 | 12295 ft | 351 kts | 33° |
| 2026-05-04 08:17 | 58.45305 | 8.43494 | 13268 ft | 358 kts | 33° |
| 2026-05-04 08:19 | 58.60543 | 8.62837 | 18400 ft | 392 kts | 25° |
| 2026-05-04 08:19 | 58.62865 | 8.65525 | 18984 ft | 396 kts | 26° |
| 2026-05-04 08:20 | 58.65233 | 8.68293 | 19600 ft | 400 kts | 26° |
| 2026-05-04 08:20 | 58.67617 | 8.71100 | 20193 ft | 404 kts | 26° |
| 2026-05-04 08:20 | 58.70036 | 8.73963 | 20773 ft | 408 kts | 26° |
| 2026-05-04 08:20 | 58.72467 | 8.76850 | 21351 ft | 412 kts | 26° |
| 2026-05-04 08:21 | 58.74891 | 8.79737 | 21971 ft | 416 kts | 26° |
| 2026-05-04 08:21 | 58.77371 | 8.82697 | 22524 ft | 420 kts | 26° |
| 2026-05-04 08:21 | 58.79868 | 8.85684 | 23183 ft | 421 kts | 26° |
| 2026-05-04 08:21 | 58.82357 | 8.88669 | 23822 ft | 420 kts | 26° |
| 2026-05-04 08:22 | 58.84839 | 8.91651 | 24404 ft | 420 kts | 26° |
| 2026-05-04 08:22 | 58.87318 | 8.94633 | 25043 ft | 418 kts | 26° |
| 2026-05-04 08:24 | 59.04099 | 9.14899 | 26815 ft | 457 kts | 27° |
| 2026-05-04 08:24 | 59.07722 | 9.19308 | 26799 ft | 470 kts | 27° |
| 2026-05-04 08:24 | 59.09611 | 9.21613 | 26799 ft | 476 kts | 27° |
| 2026-05-04 08:24 | 59.12409 | 9.25037 | 26739 ft | 481 kts | 27° |
| 2026-05-04 08:25 | 59.15231 | 9.28503 | 26450 ft | 478 kts | 27° |
| 2026-05-04 08:25 | 59.18027 | 9.31950 | 26185 ft | 471 kts | 27° |
| 2026-05-04 08:25 | 59.21688 | 9.36469 | 25840 ft | 468 kts | 27° |
| 2026-05-04 08:25 | 59.23551 | 9.38768 | 25663 ft | 468 kts | 27° |
| 2026-05-04 08:26 | 59.26273 | 9.42127 | 25475 ft | 468 kts | 27° |
| 2026-05-04 08:27 | 59.44965 | 9.65381 | 21643 ft | 441 kts | 27° |
| 2026-05-04 08:28 | 59.47539 | 9.68608 | 21105 ft | 436 kts | 27° |
| 2026-05-04 08:28 | 59.50096 | 9.71820 | 20571 ft | 432 kts | 27° |
| 2026-05-04 08:28 | 59.52621 | 9.74996 | 20101 ft | 428 kts | 27° |
| 2026-05-04 08:28 | 59.55125 | 9.78150 | 19542 ft | 425 kts | 27° |
| 2026-05-04 08:29 | 59.57583 | 9.81252 | 19048 ft | 421 kts | 27° |
| 2026-05-04 08:29 | 59.60050 | 9.84370 | 18529 ft | 419 kts | 27° |
| 2026-05-04 08:29 | 59.62502 | 9.87475 | 17995 ft | 417 kts | 27° |
| 2026-05-04 08:31 | 59.78981 | 10.08498 | 14688 ft | 384 kts | 28° |
| 2026-05-04 08:33 | 59.94421 | 10.28410 | 11214 ft | 369 kts | 29° |
| 2026-05-04 08:33 | 59.96559 | 10.31188 | 10769 ft | 365 kts | 29° |
| 2026-05-04 08:35 | 60.10017 | 10.48779 | 9533 ft | 304 kts | 28° |
| 2026-05-04 08:35 | 60.11780 | 10.51088 | 9194 ft | 301 kts | 28° |
| 2026-05-04 08:35 | 60.13528 | 10.53383 | 8883 ft | 299 kts | 28° |
| 2026-05-04 08:35 | 60.15255 | 10.55656 | 8616 ft | 295 kts | 28° |
| 2026-05-04 08:37 | 60.25286 | 10.68918 | 6901 ft | 280 kts | 27° |
| 2026-05-04 08:37 | 60.26910 | 10.71074 | 6622 ft | 279 kts | 28° |
| 2026-05-04 08:37 | 60.28532 | 10.73230 | 6326 ft | 278 kts | 28° |
| 2026-05-04 08:38 | 60.30145 | 10.75378 | 6018 ft | 276 kts | 27° |
| 2026-05-04 08:38 | 60.31727 | 10.77483 | 5753 ft | 273 kts | 28° |
| 2026-05-04 08:38 | 60.33293 | 10.79574 | 5623 ft | 265 kts | 29° |
| 2026-05-04 08:40 | 60.37649 | 10.98813 | 4437 ft | 250 kts | 120° |
| 2026-05-04 08:40 | 60.36680 | 11.01739 | 3966 ft | 250 kts | 132° |
| 2026-05-04 08:40 | 60.35446 | 11.04182 | 3568 ft | 246 kts | 144° |
| 2026-05-04 08:41 | 60.34129 | 11.06292 | 3262 ft | 239 kts | 143° |
| 2026-05-04 08:41 | 60.32857 | 11.08396 | 2946 ft | 233 kts | 143° |
| 2026-05-04 08:41 | 60.31623 | 11.10450 | 2638 ft | 223 kts | 144° |
| 2026-05-04 08:41 | 60.30362 | 11.12056 | 2386 ft | 206 kts | 160° |
| 2026-05-04 08:42 | 60.29039 | 11.12812 | 2159 ft | 190 kts | 178° |
| 2026-05-04 08:42 | 60.27796 | 11.12609 | 1904 ft | 171 kts | 198° |
| 2026-05-04 08:42 | 60.26698 | 11.12096 | 1762 ft | 152 kts | 200° |
| 2026-05-04 08:42 | 60.25714 | 11.11542 | 1582 ft | 147 kts | 202° |
| 2026-05-04 08:43 | 60.24715 | 11.10954 | 1336 ft | 149 kts | 203° |
| 2026-05-04 08:43 | 60.23712 | 11.10381 | 1143 ft | 151 kts | 204° |
| 2026-05-04 08:43 | 60.22699 | 11.09794 | 939 ft | 151 kts | 201° |
| 2026-05-04 08:43 | 60.21696 | 11.09224 | 742 ft | 151 kts | 201° |
| 2026-05-04 08:44 | 60.20730 | 11.08657 | 678 ft | 126 kts | 195° |
| 2026-05-04 08:44 | 60.20196 | 11.08352 | 675 ft | 38 kts | 195° |
| 2026-05-04 08:46 | 60.19766 | 11.09325 | 678 ft | 18 kts | 107° |
| 2026-05-04 08:46 | 60.19733 | 11.09561 | 680 ft | 17 kts | 106° |
| 2026-05-04 08:46 | 60.19673 | 11.09746 | 681 ft | 11 kts | 148° |
| 2026-05-04 08:46 | 60.19643 | 11.09872 | 682 ft | 8 kts | 105° |
| 2026-05-04 08:47 | 60.19633 | 11.09943 | 677 ft | 3 kts | 106° |
| 2026-05-04 08:47 | 60.19631 | 11.09954 | 678 ft | 0 kts | 106° |